Nakusp, Canada
Current Conditions -  °F | °C
As of 9:00 AM on Sunday 23 Nov 2014 (Local Time) from CYRV Reporting Station
Light Rain Light Rain  
Wind Chill: 28°   Ceiling: 900
Heat Index: 36°   Visibility: 9mi
Dew Point: 34°   Wind: 12mph
Humidity: 93%   Direction: 160°SSE
Pressure: 29.93"   Gusts: NA
Location:  50.24°N, 117.8°W
Report Text: CYRV 231700Z AUTO 16010KT 9SM -RA BKN009 OVC020 02/01 A2993 RMK WSHFT AT 1645Z SLP153
Loading
Personal Weather Stations






























Interactive Weather Map New forecast layout! Learn more

10-Day Weather Forecast

Advertisements
Track Severe Weather on mobile